KCKN/CKN METAR and TAF weather

Enter ICAO airport designator
Station Type Date Time Source
KCKN METAR 2019/12/11 15:15 UTC NOAA

KCKN 111515Z AUTO 00000KT 10SM CLR M27/M29 A3038 RMK AO2


Station Type Date Time Source
KCKN Decoded METAR 2019/12/11 15:15 UTC NOAA

Crookston Municipal Field, MN, United States (KCKN) 47-51N 096-37W
Dec 11, 2019 - 10:15 AM EST / 2019.12.11 1515 UTC
Wind: Calm:0
Visibility: 10 mile(s):0
Sky conditions: clear
Temperature: -16 F (-27 C)
Dew Point: -20 F (-29 C)
Relative Humidity: 83%
Pressure (altimeter): 30.38 in. Hg (1028 hPa)
ob: KCKN 111515Z AUTO 00000KT 10SM CLR M27/M29 A3038 RMK AO2
cycle: 15

Station Type Date Time Source
KCKN TAF UTC NOAA

Error!

Example: see airport list